createdAt,value
2023-04-09T00:00:43.171Z,96.69
2023-04-09T00:03:09.611Z,96.70
2023-04-09T00:05:40.607Z,96.96
2023-04-09T00:08:07.583Z,96.31
2023-04-09T00:10:33.953Z,97.31
2023-04-09T00:13:00.536Z,97.63
2023-04-09T00:15:31.213Z,99.55
2023-04-09T00:17:58.150Z,98.14
2023-04-09T00:20:24.552Z,98.46
2023-04-09T00:22:51.649Z,99.86
2023-04-09T00:25:18.554Z,99.17
2023-04-09T00:27:44.919Z,98.96
2023-04-09T00:30:11.541Z,99.08
2023-04-09T00:32:37.939Z,98.72
2023-04-09T00:35:04.568Z,99.23
2023-04-09T00:37:31.223Z,100.00
2023-04-09T00:39:57.566Z,100.00
2023-04-09T00:42:23.913Z,100.00
2023-04-09T00:44:50.233Z,100.00
2023-04-09T00:47:17.220Z,99.24
2023-04-09T00:49:44.539Z,100.00
2023-04-09T00:52:10.935Z,100.00
2023-04-09T00:54:37.352Z,99.74
2023-04-09T00:57:03.734Z,99.54
2023-04-09T00:59:30.188Z,99.87
2023-04-09T01:01:56.746Z,99.52
2023-04-09T01:04:24.506Z,99.66
2023-04-09T01:06:53.662Z,99.76
2023-04-09T01:09:41.302Z,99.75
2023-04-09T01:12:14.648Z,100.00
2023-04-09T01:14:56.774Z,99.97
2023-04-09T01:17:35.759Z,100.00
2023-04-09T01:20:24.396Z,99.88
2023-04-09T01:23:18.958Z,100.00
2023-04-09T01:25:54.520Z,100.00
2023-04-09T01:28:26.007Z,100.00
2023-04-09T01:30:59.260Z,100.00
2023-04-09T01:33:26.944Z,100.00
2023-04-09T01:35:54.735Z,100.00
2023-04-09T01:38:22.952Z,100.00
2023-04-09T01:40:50.796Z,100.00
2023-04-09T01:43:18.813Z,100.00
2023-04-09T01:45:45.586Z,100.00
2023-04-09T01:48:13.867Z,100.00
2023-04-09T01:50:40.513Z,100.00
2023-04-09T01:53:07.322Z,100.00
2023-04-09T01:55:33.642Z,100.00
2023-04-09T01:58:00.202Z,100.00
2023-04-09T02:00:34.844Z,100.00
2023-04-09T02:03:20.204Z,100.00
2023-04-09T02:05:55.180Z,100.00
2023-04-09T02:08:23.857Z,100.00
2023-04-09T02:10:56.509Z,100.00
2023-04-09T02:13:24.451Z,100.00
2023-04-09T02:15:51.601Z,100.00
2023-04-09T02:18:25.429Z,100.00
2023-04-09T02:20:52.136Z,100.00
2023-04-09T02:23:18.653Z,100.00
2023-04-09T02:25:45.188Z,100.00
2023-04-09T02:28:11.976Z,100.00
2023-04-09T02:30:38.296Z,100.00
2023-04-09T02:33:05.087Z,100.00
2023-04-09T02:35:31.506Z,100.00
2023-04-09T02:37:57.934Z,100.00
2023-04-09T02:40:25.066Z,100.00
2023-04-09T02:42:52.474Z,100.00
2023-04-09T02:45:18.907Z,100.00
2023-04-09T02:47:45.363Z,100.00
2023-04-09T02:50:11.895Z,100.00
2023-04-09T02:52:47.321Z,100.00
2023-04-09T02:55:14.196Z,100.00
2023-04-09T02:57:40.898Z,100.00
2023-04-09T03:00:08.113Z,100.00
2023-04-09T03:02:34.537Z,100.00
2023-04-09T03:05:00.904Z,100.00
2023-04-09T03:07:27.202Z,100.00
2023-04-09T03:09:53.523Z,100.00
2023-04-09T03:12:19.901Z,100.00
2023-04-09T03:14:46.314Z,100.00
2023-04-09T03:17:12.610Z,100.00
2023-04-09T03:19:38.934Z,100.00
2023-04-09T03:22:05.654Z,100.00
2023-04-09T03:24:33.203Z,100.00
2023-04-09T03:27:02.714Z,100.00
2023-04-09T03:29:30.814Z,100.00
2023-04-09T03:31:58.143Z,100.00
2023-04-09T03:34:24.725Z,100.00
2023-04-09T03:36:53.880Z,100.00
2023-04-09T03:39:26.544Z,100.00
2023-04-09T03:41:53.068Z,100.00
2023-04-09T03:44:19.367Z,100.00
2023-04-09T03:46:59.628Z,100.00
2023-04-09T03:49:27.478Z,100.00
2023-04-09T03:52:01.722Z,100.00
2023-04-09T03:54:36.206Z,100.00
2023-04-09T03:57:07.285Z,100.00
2023-04-09T03:59:37.300Z,100.00
2023-04-09T04:02:03.664Z,100.00
2023-04-09T04:04:32.644Z,100.00
2023-04-09T04:06:59.058Z,100.00
2023-04-09T04:09:29.171Z,100.00
2023-04-09T04:12:02.120Z,100.00
2023-04-09T04:14:42.919Z,100.00
2023-04-09T04:17:19.786Z,100.00
2023-04-09T04:19:47.200Z,100.00
2023-04-09T04:22:14.339Z,100.00
2023-04-09T04:24:45.983Z,100.00
2023-04-09T04:27:17.274Z,100.00
2023-04-09T04:29:43.989Z,100.00
2023-04-09T04:32:28.030Z,100.00
2023-04-09T04:34:55.155Z,100.00
2023-04-09T04:37:25.613Z,100.00
2023-04-09T04:39:56.080Z,100.00
2023-04-09T04:42:23.133Z,100.00
2023-04-09T04:44:49.931Z,100.00
2023-04-09T04:47:33.176Z,100.00
2023-04-09T04:49:59.741Z,100.00
2023-04-09T04:52:26.260Z,100.00
2023-04-09T04:54:53.900Z,100.00
2023-04-09T04:57:22.977Z,100.00
2023-04-09T04:59:49.527Z,100.00
2023-04-09T05:02:17.215Z,100.00
2023-04-09T05:05:04.233Z,100.00
2023-04-09T05:07:38.119Z,100.00
2023-04-09T05:10:06.507Z,100.00
2023-04-09T05:12:37.672Z,100.00
2023-04-09T05:15:05.212Z,100.00
2023-04-09T05:17:31.918Z,100.00
2023-04-09T05:19:58.274Z,100.00
2023-04-09T05:22:36.247Z,100.00
2023-04-09T05:25:04.464Z,100.00
2023-04-09T05:27:35.343Z,100.00
2023-04-09T05:30:02.256Z,100.00
2023-04-09T05:32:28.930Z,100.00
2023-04-09T05:34:57.315Z,100.00
2023-04-09T05:37:25.705Z,100.00
2023-04-09T05:39:52.968Z,100.00
2023-04-09T05:42:19.325Z,100.00
2023-04-09T05:45:10.723Z,100.00
2023-04-09T05:47:40.043Z,100.00
2023-04-09T05:50:12.350Z,100.00
2023-04-09T05:52:38.729Z,100.00
2023-04-09T05:55:06.507Z,100.00
2023-04-09T05:57:42.628Z,100.00
2023-04-09T06:00:09.561Z,100.00
2023-04-09T06:02:45.885Z,100.00
2023-04-09T06:05:12.660Z,100.00
2023-04-09T06:07:38.991Z,100.00
2023-04-09T06:10:05.985Z,100.00
2023-04-09T06:12:35.248Z,100.00
2023-04-09T06:15:04.679Z,100.00
2023-04-09T06:17:31.091Z,100.00
2023-04-09T06:19:57.483Z,100.00
2023-04-09T06:22:23.802Z,100.00
2023-04-09T06:24:50.304Z,100.00
2023-04-09T06:27:18.875Z,100.00
2023-04-09T06:29:45.354Z,100.00
2023-04-09T06:32:11.665Z,100.00
2023-04-09T06:34:37.961Z,100.00
2023-04-09T06:37:04.355Z,100.00
2023-04-09T06:39:30.852Z,100.00
2023-04-09T06:41:57.175Z,100.00
2023-04-09T06:44:49.295Z,100.00
2023-04-09T06:47:15.605Z,100.00
2023-04-09T06:49:41.885Z,100.00
2023-04-09T06:52:08.320Z,100.00
2023-04-09T06:54:34.613Z,100.00
2023-04-09T06:57:00.997Z,100.00
2023-04-09T06:59:27.275Z,100.00
2023-04-09T07:01:54.740Z,100.00
2023-04-09T07:04:21.521Z,100.00
2023-04-09T07:06:47.857Z,100.00
2023-04-09T07:09:14.191Z,100.00
2023-04-09T07:11:40.553Z,100.00
2023-04-09T07:14:06.835Z,100.00
2023-04-09T07:16:33.262Z,100.00
2023-04-09T07:18:59.662Z,100.00
2023-04-09T07:21:28.165Z,100.00
2023-04-09T07:23:54.869Z,100.00
2023-04-09T07:26:21.396Z,99.53
2023-04-09T07:28:47.667Z,100.00
2023-04-09T07:31:14.049Z,99.12
2023-04-09T07:33:40.593Z,98.96
2023-04-09T07:36:07.056Z,98.81
2023-04-09T07:38:33.460Z,97.50
2023-04-09T07:40:59.768Z,96.40
2023-04-09T07:43:26.170Z,97.30
2023-04-09T07:45:52.614Z,97.15
2023-04-09T07:48:18.970Z,97.45
2023-04-09T07:50:45.317Z,96.76
2023-04-09T07:53:12.379Z,95.46
2023-04-09T07:55:38.658Z,95.86
2023-04-09T07:58:05.830Z,95.99
2023-04-09T08:00:32.140Z,94.86
2023-04-09T08:02:59.293Z,95.61
2023-04-09T08:05:25.694Z,94.87
2023-04-09T08:07:53.182Z,94.70
2023-04-09T08:10:19.539Z,95.42
2023-04-09T08:12:47.931Z,94.07
2023-04-09T08:15:14.545Z,95.25
2023-04-09T08:17:41.158Z,93.67
2023-04-09T08:20:08.106Z,92.06
2023-04-09T08:22:34.522Z,92.93
2023-04-09T08:25:02.691Z,91.36
2023-04-09T08:27:29.313Z,93.53
2023-04-09T08:29:55.663Z,95.36
2023-04-09T08:32:22.080Z,93.61
2023-04-09T08:34:48.467Z,92.02
2023-04-09T08:37:14.789Z,92.07
2023-04-09T08:39:41.106Z,91.33
2023-04-09T08:42:08.138Z,92.68
2023-04-09T08:44:34.469Z,91.72
2023-04-09T08:47:01.577Z,91.25
2023-04-09T08:49:27.945Z,92.35
2023-04-09T08:51:54.240Z,93.85
2023-04-09T08:54:20.688Z,92.48
2023-04-09T08:56:47.665Z,90.96
2023-04-09T08:59:18.501Z,89.27
2023-04-09T09:01:47.764Z,89.61
2023-04-09T09:04:14.276Z,90.00
2023-04-09T09:06:41.652Z,90.60
2023-04-09T09:09:16.272Z,89.77
2023-04-09T09:11:46.910Z,90.82
2023-04-09T09:14:15.331Z,92.02
2023-04-09T09:16:43.787Z,93.84
2023-04-09T09:19:30.115Z,92.47
2023-04-09T09:21:57.764Z,92.19
2023-04-09T09:24:24.089Z,89.85
2023-04-09T09:26:50.550Z,89.04
2023-04-09T09:29:17.506Z,86.55
2023-04-09T09:31:52.887Z,85.28
2023-04-09T09:34:21.340Z,85.31
2023-04-09T09:36:47.843Z,86.53
2023-04-09T09:39:17.121Z,85.72
2023-04-09T09:41:45.164Z,87.40
2023-04-09T09:44:12.793Z,88.15
2023-04-09T09:46:42.248Z,87.38
2023-04-09T09:49:09.494Z,88.13
2023-04-09T09:51:39.083Z,88.22
2023-04-09T09:54:08.098Z,87.73
2023-04-09T09:56:39.470Z,87.68
2023-04-09T09:59:26.879Z,87.41
2023-04-09T10:02:00.249Z,87.92
2023-04-09T10:04:29.203Z,88.79
2023-04-09T10:06:56.674Z,88.32
2023-04-09T10:09:23.345Z,86.27
2023-04-09T10:11:49.782Z,85.21
2023-04-09T10:14:17.630Z,84.67
2023-04-09T10:16:44.056Z,80.80
2023-04-09T10:19:16.626Z,80.16
2023-04-09T10:21:54.569Z,78.19
2023-04-09T10:24:21.768Z,79.50
2023-04-09T10:26:48.197Z,78.78
2023-04-09T10:29:16.519Z,76.67
2023-04-09T10:32:06.226Z,78.27
2023-04-09T10:34:40.910Z,78.32
2023-04-09T10:37:09.833Z,77.90
2023-04-09T10:39:41.679Z,79.74
2023-04-09T10:42:13.454Z,75.39
2023-04-09T10:44:44.297Z,76.39
2023-04-09T10:47:11.735Z,74.45
2023-04-09T10:49:41.739Z,76.71
2023-04-09T10:52:11.747Z,75.25
2023-04-09T10:54:46.098Z,74.26
2023-04-09T10:57:18.989Z,72.17
2023-04-09T10:59:50.585Z,71.22
2023-04-09T11:03:04.231Z,71.09
2023-04-09T11:05:37.999Z,72.74
2023-04-09T11:08:12.652Z,69.72
2023-04-09T11:10:41.882Z,71.22
2023-04-09T11:13:13.301Z,71.83
2023-04-09T11:15:39.747Z,70.19
2023-04-09T11:18:13.909Z,70.78
2023-04-09T11:20:40.675Z,70.16
2023-04-09T11:23:07.247Z,71.25
2023-04-09T11:25:34.875Z,70.98
2023-04-09T11:28:03.883Z,70.54
2023-04-09T11:30:31.115Z,73.00
2023-04-09T11:32:57.417Z,72.38
2023-04-09T11:35:23.881Z,73.54
2023-04-09T11:37:52.094Z,71.58
2023-04-09T11:40:20.896Z,73.00
2023-04-09T11:42:50.228Z,71.06
2023-04-09T11:45:18.032Z,68.16
2023-04-09T11:47:46.449Z,69.46
2023-04-09T11:50:14.329Z,70.18
2023-04-09T11:52:41.660Z,68.49
2023-04-09T11:55:09.441Z,69.19
2023-04-09T11:57:46.824Z,69.58
2023-04-09T12:00:16.210Z,69.41
2023-04-09T12:02:49.970Z,69.54
2023-04-09T12:05:25.671Z,69.46
2023-04-09T12:07:57.056Z,70.31
2023-04-09T12:10:31.079Z,67.22
2023-04-09T12:13:08.246Z,67.16
2023-04-09T12:15:37.304Z,69.14
2023-04-09T12:18:07.754Z,67.36
2023-04-09T12:20:39.765Z,66.96
2023-04-09T12:23:07.532Z,68.11
2023-04-09T12:25:36.834Z,67.36
2023-04-09T12:28:07.533Z,65.09
2023-04-09T12:30:34.770Z,66.73
2023-04-09T12:33:02.902Z,66.55
2023-04-09T12:35:29.511Z,62.06
2023-04-09T12:37:56.002Z,62.41
2023-04-09T12:40:22.654Z,63.27
2023-04-09T12:42:49.014Z,62.09
2023-04-09T12:45:17.252Z,63.51
2023-04-09T12:47:44.039Z,62.92
2023-04-09T12:50:11.840Z,62.05
2023-04-09T12:52:38.487Z,62.39
2023-04-09T12:55:06.510Z,64.08
2023-04-09T12:57:33.195Z,62.82
2023-04-09T12:59:59.734Z,60.74
2023-04-09T13:02:26.539Z,61.48
2023-04-09T13:04:53.112Z,59.53
2023-04-09T13:07:20.230Z,62.02
2023-04-09T13:09:47.889Z,61.63
2023-04-09T13:12:15.461Z,59.61
2023-04-09T13:14:43.240Z,58.37
2023-04-09T13:17:09.737Z,57.56
2023-04-09T13:19:36.136Z,60.06
2023-04-09T13:22:02.509Z,60.88
2023-04-09T13:24:28.840Z,61.45
2023-04-09T13:26:55.228Z,61.54
2023-04-09T13:29:21.878Z,61.97
2023-04-09T13:31:48.745Z,61.87
2023-04-09T13:34:15.354Z,61.69
2023-04-09T13:36:41.648Z,60.67
2023-04-09T13:39:07.998Z,61.96
2023-04-09T13:41:34.625Z,61.76
2023-04-09T13:44:01.567Z,61.27
2023-04-09T13:46:28.171Z,63.44
2023-04-09T13:48:55.163Z,63.24
2023-04-09T13:51:22.474Z,63.86
2023-04-09T13:53:49.531Z,63.94
2023-04-09T13:56:16.455Z,63.61
2023-04-09T13:58:43.623Z,63.67
2023-04-09T14:01:11.197Z,62.51
2023-04-09T14:03:40.914Z,61.61
2023-04-09T14:06:10.257Z,62.11
2023-04-09T14:08:36.888Z,61.71
2023-04-09T14:11:03.300Z,63.05
2023-04-09T14:13:30.070Z,62.44
2023-04-09T14:15:58.610Z,61.20
2023-04-09T14:18:26.223Z,61.20
2023-04-09T14:20:52.562Z,62.31
2023-04-09T14:23:18.950Z,60.77
2023-04-09T14:25:45.522Z,61.33
2023-04-09T14:28:11.986Z,61.05
2023-04-09T14:30:38.319Z,61.30
2023-04-09T14:33:04.629Z,62.97
2023-04-09T14:35:31.450Z,60.69
2023-04-09T14:37:57.832Z,60.34
2023-04-09T14:40:24.309Z,56.66
2023-04-09T14:42:50.694Z,58.46
2023-04-09T14:45:17.089Z,59.28
2023-04-09T14:47:43.478Z,58.89
2023-04-09T14:50:12.520Z,59.62
2023-04-09T14:52:38.902Z,59.21
2023-04-09T14:55:05.530Z,58.34
2023-04-09T14:57:31.843Z,59.51
2023-04-09T14:59:58.134Z,56.30
2023-04-09T15:02:24.624Z,57.02
2023-04-09T15:04:51.203Z,57.06
2023-04-09T15:07:17.671Z,55.63
2023-04-09T15:09:44.010Z,56.72
2023-04-09T15:12:10.458Z,57.61
2023-04-09T15:14:36.974Z,58.96
2023-04-09T15:17:03.319Z,56.33
2023-04-09T15:19:30.677Z,56.34
2023-04-09T15:21:56.980Z,56.90
2023-04-09T15:24:23.264Z,58.00
2023-04-09T15:26:49.764Z,58.53
2023-04-09T15:29:16.164Z,57.24
2023-04-09T15:31:42.544Z,57.29
2023-04-09T15:34:08.960Z,56.49
2023-04-09T15:36:35.513Z,57.50
2023-04-09T15:39:04.198Z,57.49
2023-04-09T15:41:32.101Z,57.34
2023-04-09T15:43:58.398Z,57.41
2023-04-09T15:46:24.830Z,57.75
2023-04-09T15:48:51.514Z,58.48
2023-04-09T15:51:18.085Z,58.82
2023-04-09T15:53:44.427Z,58.55
2023-04-09T15:56:16.767Z,58.28
2023-04-09T15:58:43.336Z,58.67
2023-04-09T16:01:10.890Z,58.52
2023-04-09T16:03:40.868Z,57.08
2023-04-09T16:06:09.239Z,57.54
2023-04-09T16:08:37.194Z,58.58
2023-04-09T16:11:04.567Z,58.42
2023-04-09T16:13:31.110Z,58.17
2023-04-09T16:15:57.386Z,58.17
2023-04-09T16:18:23.825Z,58.46
2023-04-09T16:20:54.231Z,58.49
2023-04-09T16:23:21.852Z,59.00
2023-04-09T16:25:48.261Z,57.39
2023-04-09T16:28:16.389Z,57.80
2023-04-09T16:30:43.530Z,58.45
2023-04-09T16:33:10.274Z,58.03
2023-04-09T16:35:39.418Z,59.17
2023-04-09T16:38:06.610Z,59.39
2023-04-09T16:40:33.158Z,59.16
2023-04-09T16:43:01.193Z,59.06
2023-04-09T16:45:28.160Z,59.91
2023-04-09T16:47:54.563Z,59.89
2023-04-09T16:50:21.272Z,59.81
2023-04-09T16:52:48.246Z,60.31
2023-04-09T16:55:14.816Z,61.02
2023-04-09T16:57:41.516Z,60.10
2023-04-09T17:00:09.294Z,60.53
2023-04-09T17:02:37.062Z,60.59
2023-04-09T17:05:04.225Z,59.60
2023-04-09T17:07:30.755Z,58.67
2023-04-09T17:09:57.198Z,59.08
2023-04-09T17:12:24.457Z,59.21
2023-04-09T17:14:51.429Z,59.77
2023-04-09T17:17:18.389Z,61.62
2023-04-09T17:19:44.703Z,62.78
2023-04-09T17:22:13.171Z,64.20
2023-04-09T17:24:39.755Z,65.10
2023-04-09T17:27:06.508Z,66.67
2023-04-09T17:29:32.834Z,67.68
2023-04-09T17:31:59.763Z,69.03
2023-04-09T17:34:26.165Z,70.16
2023-04-09T17:36:57.107Z,71.53
2023-04-09T17:39:26.919Z,71.56
2023-04-09T17:41:53.526Z,72.22
2023-04-09T17:44:20.495Z,73.09
2023-04-09T17:46:46.841Z,74.37
2023-04-09T17:49:13.330Z,73.88
2023-04-09T17:51:39.666Z,73.44
2023-04-09T17:54:05.960Z,73.65
2023-04-09T17:56:35.302Z,73.28
2023-04-09T17:59:01.966Z,72.86
2023-04-09T18:01:28.398Z,73.49
2023-04-09T18:03:55.088Z,73.13
2023-04-09T18:06:21.572Z,73.44
2023-04-09T18:08:48.914Z,74.43
2023-04-09T18:11:17.955Z,73.86
2023-04-09T18:13:44.275Z,73.77
2023-04-09T18:16:12.069Z,73.86
2023-04-09T18:18:38.865Z,74.80
2023-04-09T18:21:06.098Z,75.27
2023-04-09T18:23:32.744Z,75.25
2023-04-09T18:25:59.108Z,75.40
2023-04-09T18:28:26.061Z,77.08
2023-04-09T18:30:53.928Z,77.33
2023-04-09T18:33:20.849Z,76.54
2023-04-09T18:35:47.206Z,76.23
2023-04-09T18:38:13.648Z,74.81
2023-04-09T18:40:43.968Z,75.38
2023-04-09T18:43:13.039Z,75.22
2023-04-09T18:45:39.570Z,76.28
2023-04-09T18:48:06.145Z,75.18
2023-04-09T18:50:32.554Z,75.04
2023-04-09T18:52:58.919Z,75.86
2023-04-09T18:55:25.481Z,75.80
2023-04-09T18:57:52.488Z,75.13
2023-04-09T19:00:18.853Z,76.31
2023-04-09T19:02:46.078Z,77.11
2023-04-09T19:05:12.715Z,76.26
2023-04-09T19:07:39.320Z,76.61
2023-04-09T19:10:06.051Z,76.22
2023-04-09T19:12:32.388Z,75.13
2023-04-09T19:15:00.864Z,77.17
2023-04-09T19:17:27.288Z,76.91
2023-04-09T19:19:53.667Z,75.95
2023-04-09T19:22:19.978Z,76.97
2023-04-09T19:24:46.284Z,77.66
2023-04-09T19:27:13.880Z,78.30
2023-04-09T19:29:40.236Z,76.85
2023-04-09T19:32:09.071Z,76.35
2023-04-09T19:34:35.507Z,76.34
2023-04-09T19:37:02.371Z,77.33
2023-04-09T19:39:28.701Z,78.15
2023-04-09T19:41:55.466Z,77.27
2023-04-09T19:44:22.871Z,79.46
2023-04-09T19:46:49.348Z,78.45
2023-04-09T19:49:15.776Z,78.43
2023-04-09T19:51:42.097Z,77.97
2023-04-09T19:54:10.595Z,78.48
2023-04-09T19:56:37.992Z,80.00
2023-04-09T19:59:04.314Z,79.10
2023-04-09T20:01:30.728Z,81.25
2023-04-09T20:03:57.232Z,80.04
2023-04-09T20:06:23.805Z,79.12
2023-04-09T20:08:50.095Z,80.25
2023-04-09T20:11:17.578Z,78.93
2023-04-09T20:13:43.905Z,79.78
2023-04-09T20:16:10.281Z,79.69
2023-04-09T20:18:36.580Z,79.56
2023-04-09T20:21:03.023Z,79.17
2023-04-09T20:23:30.077Z,78.00
2023-04-09T20:25:56.680Z,78.26
2023-04-09T20:28:23.055Z,78.90
2023-04-09T20:30:49.525Z,78.59
2023-04-09T20:33:17.266Z,78.75
2023-04-09T20:35:43.751Z,80.08
2023-04-09T20:38:10.114Z,80.02
2023-04-09T20:40:37.370Z,82.10
2023-04-09T20:43:03.937Z,80.44
2023-04-09T20:45:30.360Z,82.16
2023-04-09T20:47:56.961Z,81.42
2023-04-09T20:50:23.384Z,81.81
2023-04-09T20:52:49.765Z,81.96
2023-04-09T20:55:16.229Z,81.75
2023-04-09T20:57:43.731Z,80.00
2023-04-09T21:00:10.933Z,80.73
2023-04-09T21:02:38.736Z,79.68
2023-04-09T21:05:15.703Z,79.80
2023-04-09T21:07:48.703Z,81.51
2023-04-09T21:10:15.365Z,81.64
2023-04-09T21:12:41.674Z,81.02
2023-04-09T21:15:08.515Z,81.53
2023-04-09T21:17:35.016Z,81.75
2023-04-09T21:20:01.395Z,81.75
2023-04-09T21:22:27.745Z,83.46
2023-04-09T21:24:54.190Z,81.17
2023-04-09T21:27:20.667Z,81.25
2023-04-09T21:29:47.051Z,82.58
2023-04-09T21:32:13.406Z,81.23
2023-04-09T21:34:39.737Z,81.69
2023-04-09T21:37:06.290Z,81.03
2023-04-09T21:39:32.592Z,81.16
2023-04-09T21:41:58.956Z,81.51
2023-04-09T21:44:25.321Z,83.18
2023-04-09T21:46:52.112Z,81.94
2023-04-09T21:49:18.469Z,83.06
2023-04-09T21:51:45.613Z,82.94
2023-04-09T21:54:12.019Z,82.83
2023-04-09T21:56:39.330Z,81.88
2023-04-09T21:59:05.684Z,81.81
2023-04-09T22:01:34.375Z,81.83
2023-04-09T22:04:04.678Z,82.07
2023-04-09T22:06:32.107Z,81.56
2023-04-09T22:08:58.723Z,83.55
2023-04-09T22:11:29.096Z,82.87
2023-04-09T22:13:57.052Z,82.17
2023-04-09T22:16:24.382Z,82.99
2023-04-09T22:18:51.499Z,82.08
2023-04-09T22:21:18.164Z,82.56
2023-04-09T22:23:45.220Z,82.27
2023-04-09T22:26:11.584Z,82.44
2023-04-09T22:28:38.327Z,82.40
2023-04-09T22:31:05.656Z,82.36
2023-04-09T22:33:32.122Z,81.65
2023-04-09T22:35:59.209Z,81.85
2023-04-09T22:38:25.989Z,80.71
2023-04-09T22:40:52.397Z,80.51
2023-04-09T22:43:19.391Z,82.81
2023-04-09T22:45:54.963Z,82.52
2023-04-09T22:48:22.026Z,83.17
2023-04-09T22:50:49.471Z,82.29
2023-04-09T22:53:18.888Z,82.72
2023-04-09T22:55:47.331Z,83.02
2023-04-09T22:58:13.706Z,80.91
2023-04-09T23:00:40.279Z,80.77
2023-04-09T23:03:06.823Z,80.88
2023-04-09T23:05:33.351Z,81.31
2023-04-09T23:07:59.686Z,82.19
2023-04-09T23:10:26.315Z,82.62
2023-04-09T23:12:52.599Z,82.94
2023-04-09T23:15:19.182Z,83.41
2023-04-09T23:17:45.650Z,82.44
2023-04-09T23:20:14.576Z,83.18
2023-04-09T23:22:41.739Z,83.79
2023-04-09T23:25:08.474Z,84.58
2023-04-09T23:27:34.823Z,84.63
2023-04-09T23:30:01.113Z,86.32
2023-04-09T23:32:27.503Z,85.89
2023-04-09T23:34:53.850Z,85.52
2023-04-09T23:37:20.304Z,84.30
2023-04-09T23:39:47.673Z,86.14
2023-04-09T23:42:14.024Z,85.06
2023-04-09T23:44:40.350Z,84.46
2023-04-09T23:47:07.562Z,85.65
2023-04-09T23:49:33.924Z,86.57
2023-04-09T23:52:00.290Z,86.38
2023-04-09T23:54:26.934Z,84.70
2023-04-09T23:56:53.256Z,84.54
2023-04-09T23:59:19.569Z,84.64
